Time;durP1;ratioP1;P1;durP2;ratioP2;P2;SDS_P1;SDS_P2;PMS_P1;PMS_P2;Temp;Humidity;BMP_temperature;BMP_pressure;BME280_temperature;BME280_humidity;BME280_pressure;Samples;Min_cycle;Max_cycle;Signal;HPM_P1;HPM_P2
2023/04/19 00:00:34;;;;;;;7.70;3.20;;;6.30;99.90;;;;;;4978518;28;20588;-79
2023/04/19 00:03:01;;;;;;;5.83;3.60;;;6.30;99.90;;;;;;4978289;28;20320;-79
2023/04/19 00:05:27;;;;;;;4.90;3.30;;;6.30;99.90;;;;;;4966406;28;20222;-73
2023/04/19 00:07:52;;;;;;;5.77;3.17;;;6.30;99.90;;;;;;4970653;28;20239;-74
2023/04/19 00:10:18;;;;;;;3.30;2.57;;;6.30;99.90;;;;;;4968306;28;20651;-71
2023/04/19 00:12:44;;;;;;;3.20;2.90;;;6.40;99.90;;;;;;4969663;28;20219;-69
2023/04/19 00:15:10;;;;;;;3.43;3.13;;;6.40;99.90;;;;;;4969737;28;20683;-70
2023/04/19 00:17:35;;;;;;;5.30;2.97;;;6.40;99.90;;;;;;4967955;28;20532;-79
2023/04/19 00:20:01;;;;;;;3.20;2.83;;;6.60;99.90;;;;;;4970316;28;20196;-70
2023/04/19 00:22:26;;;;;;;3.50;2.93;;;6.70;99.90;;;;;;4968648;28;20239;-70
2023/04/19 00:24:52;;;;;;;6.53;2.70;;;6.80;99.90;;;;;;4968572;28;20252;-70
2023/04/19 00:27:18;;;;;;;4.47;2.53;;;6.80;99.90;;;;;;4971554;28;20204;-70
2023/04/19 00:29:44;;;;;;;3.73;2.60;;;6.70;99.90;;;;;;4945401;28;20684;-70
2023/04/19 00:32:10;;;;;;;2.93;2.63;;;6.70;99.90;;;;;;4969467;28;20218;-71
2023/04/19 00:34:35;;;;;;;3.80;2.83;;;6.60;99.90;;;;;;4968816;28;20257;-71
2023/04/19 00:37:03;;;;;;;3.87;2.80;;;6.70;99.90;;;;;;4965581;28;20614;-71
2023/04/19 00:39:28;;;;;;;3.93;2.77;;;6.60;99.90;;;;;;4952187;28;20201;-71
2023/04/19 00:41:56;;;;;;;3.70;3.10;;;6.60;99.90;;;;;;4968177;28;20569;-71
2023/04/19 00:44:22;;;;;;;4.17;3.00;;;6.60;99.90;;;;;;4950862;28;20648;-71
2023/04/19 00:46:47;;;;;;;6.80;2.60;;;6.50;99.90;;;;;;4971003;28;20204;-71
2023/04/19 00:49:13;;;;;;;3.40;3.10;;;6.50;99.90;;;;;;4978543;28;20227;-70
2023/04/19 00:51:39;;;;;;;5.40;3.17;;;6.50;99.90;;;;;;4978531;28;20322;-71
2023/04/19 00:54:06;;;;;;;3.93;2.50;;;6.50;99.90;;;;;;4977734;28;20284;-70
2023/04/19 00:56:33;;;;;;;4.07;2.90;;;6.40;99.90;;;;;;4973936;28;20212;-71
2023/04/19 00:58:58;;;;;;;7.90;3.10;;;6.40;99.90;;;;;;4978331;28;20208;-70
2023/04/19 01:01:24;;;;;;;5.83;3.33;;;6.30;99.90;;;;;;4978364;28;20672;-71
2023/04/19 01:03:49;;;;;;;2.40;2.20;;;6.30;99.90;;;;;;4978062;28;20295;-71
2023/04/19 01:06:15;;;;;;;6.37;3.07;;;6.30;99.90;;;;;;4978431;28;20201;-73
2023/04/19 01:08:41;;;;;;;7.00;2.73;;;6.30;99.90;;;;;;4976260;28;20204;-70
2023/04/19 01:11:09;;;;;;;2.50;2.30;;;6.20;99.90;;;;;;4977983;28;20205;-71
2023/04/19 01:13:34;;;;;;;5.37;2.63;;;6.20;99.90;;;;;;4969112;28;20639;-71
2023/04/19 01:16:00;;;;;;;4.33;2.87;;;6.20;99.90;;;;;;4967990;28;20252;-71
2023/04/19 01:18:31;;;;;;;3.67;2.87;;;6.10;99.90;;;;;;4967725;28;20206;-72
2023/04/19 01:20:57;;;;;;;3.57;2.93;;;6.10;99.90;;;;;;4966473;28;20231;-71
2023/04/19 01:23:23;;;;;;;2.83;2.40;;;6.10;99.90;;;;;;4969641;28;20233;-71
2023/04/19 01:25:49;;;;;;;3.40;2.63;;;6.00;99.90;;;;;;4977600;28;20809;-71
2023/04/19 01:28:14;;;;;;;5.63;2.80;;;5.90;99.90;;;;;;4977658;28;20282;-72
2023/04/19 01:30:42;;;;;;;4.47;2.77;;;5.90;99.90;;;;;;4977960;28;20369;-70
2023/04/19 01:33:07;;;;;;;3.03;2.43;;;5.80;99.90;;;;;;4975252;28;20256;-70
2023/04/19 01:35:33;;;;;;;3.10;2.30;;;5.80;99.90;;;;;;4972905;28;20240;-70
2023/04/19 01:37:58;;;;;;;5.03;2.60;;;5.70;99.90;;;;;;4976173;28;20220;-71
2023/04/19 01:40:25;;;;;;;4.57;2.47;;;5.70;99.90;;;;;;4977839;28;20236;-72
2023/04/19 01:42:51;;;;;;;2.93;2.50;;;5.70;99.90;;;;;;4980747;28;20230;-71
2023/04/19 01:45:16;;;;;;;3.90;2.63;;;5.60;99.90;;;;;;4971169;28;20607;-73
2023/04/19 01:47:42;;;;;;;4.53;3.30;;;5.60;99.90;;;;;;4977277;28;20232;-72
2023/04/19 01:50:08;;;;;;;4.30;2.90;;;5.60;99.90;;;;;;4977522;28;20308;-72
2023/04/19 01:52:33;;;;;;;5.40;2.90;;;5.50;99.90;;;;;;4976940;28;20604;-73
2023/04/19 01:54:59;;;;;;;2.80;2.47;;;5.50;99.90;;;;;;4977351;28;20981;-72
2023/04/19 01:57:24;;;;;;;7.90;2.90;;;5.40;99.90;;;;;;4977470;28;20288;-72
2023/04/19 01:59:50;;;;;;;3.50;2.20;;;5.50;99.90;;;;;;4976126;28;20204;-71
2023/04/19 02:02:16;;;;;;;3.47;2.93;;;5.40;99.90;;;;;;4971168;28;20598;-71
2023/04/19 02:04:42;;;;;;;2.77;2.10;;;5.40;99.90;;;;;;4966595;28;20241;-72
2023/04/19 02:07:08;;;;;;;3.60;2.87;;;5.30;99.90;;;;;;4949785;28;20200;-72
2023/04/19 02:09:35;;;;;;;5.33;2.73;;;5.30;99.90;;;;;;4973912;28;20295;-71
2023/04/19 02:12:01;;;;;;;4.27;2.67;;;5.30;99.90;;;;;;4967580;28;20216;-71
2023/04/19 02:14:26;;;;;;;3.07;2.80;;;5.30;99.90;;;;;;4968075;28;20475;-71
2023/04/19 02:16:51;;;;;;;9.07;3.07;;;5.20;99.90;;;;;;4967603;28;20201;-71
2023/04/19 02:19:17;;;;;;;3.67;2.77;;;5.20;99.90;;;;;;4968120;28;20556;-71
2023/04/19 02:21:42;;;;;;;3.97;2.30;;;5.20;99.90;;;;;;4965690;28;20200;-71
2023/04/19 02:24:08;;;;;;;6.50;2.90;;;5.10;99.90;;;;;;4967586;28;20231;-71
2023/04/19 02:26:33;;;;;;;2.63;2.40;;;5.10;99.90;;;;;;4968660;28;20818;-71
2023/04/19 02:28:59;;;;;;;3.20;2.90;;;5.10;99.90;;;;;;4969076;28;20777;-71
2023/04/19 02:31:24;;;;;;;3.27;2.87;;;5.00;99.90;;;;;;4975481;28;20719;-73
2023/04/19 02:33:50;;;;;;;3.67;2.97;;;5.00;99.90;;;;;;4977802;28;20298;-72
2023/04/19 02:36:15;;;;;;;4.63;2.37;;;4.90;99.90;;;;;;4970822;28;20593;-71
2023/04/19 02:38:41;;;;;;;2.67;2.47;;;4.90;99.90;;;;;;4970632;28;20208;-71
2023/04/19 02:41:06;;;;;;;4.53;2.60;;;4.80;99.90;;;;;;4971270;28;20201;-70
2023/04/19 02:43:32;;;;;;;7.03;3.07;;;4.80;99.90;;;;;;4971302;28;20231;-73
2023/04/19 02:45:57;;;;;;;5.90;2.93;;;4.80;99.90;;;;;;4966901;28;20296;-72
2023/04/19 02:48:23;;;;;;;6.13;2.73;;;4.80;99.90;;;;;;4971106;28;20270;-71
2023/04/19 02:50:48;;;;;;;3.30;2.40;;;4.70;99.90;;;;;;4969130;28;20210;-72
2023/04/19 02:53:14;;;;;;;5.47;2.17;;;4.70;99.90;;;;;;4971856;28;20510;-80
2023/04/19 02:55:39;;;;;;;6.10;2.43;;;4.70;99.90;;;;;;4955894;28;20339;-71
2023/04/19 02:58:05;;;;;;;2.30;2.10;;;4.60;99.90;;;;;;4972788;28;20209;-70
2023/04/19 03:00:30;;;;;;;2.03;1.80;;;4.50;99.90;;;;;;4970861;28;20216;-71
2023/04/19 03:02:56;;;;;;;2.53;2.13;;;4.40;99.90;;;;;;4968532;28;20208;-70
2023/04/19 03:05:22;;;;;;;4.30;2.27;;;4.40;99.90;;;;;;4973256;28;20195;-71
2023/04/19 03:07:48;;;;;;;5.60;2.97;;;4.40;99.90;;;;;;4967166;28;20206;-72
2023/04/19 03:10:13;;;;;;;4.93;2.53;;;4.40;99.90;;;;;;4970658;28;20602;-71
2023/04/19 03:12:39;;;;;;;6.00;2.60;;;4.30;99.90;;;;;;4975147;28;20204;-71
2023/04/19 03:15:05;;;;;;;2.30;2.10;;;4.30;99.90;;;;;;4980033;28;20217;-71
2023/04/19 03:17:31;;;;;;;3.00;2.40;;;4.20;99.90;;;;;;4977829;28;20212;-69
2023/04/19 03:19:56;;;;;;;6.30;3.13;;;4.20;99.90;;;;;;4979925;28;20280;-70
2023/04/19 03:22:22;;;;;;;4.17;2.70;;;4.10;99.90;;;;;;4979872;28;20189;-70
2023/04/19 03:24:47;;;;;;;6.03;2.90;;;4.00;99.90;;;;;;4979790;28;20320;-69
2023/04/19 03:27:13;;;;;;;2.50;2.27;;;3.90;99.90;;;;;;4979725;28;20205;-69
2023/04/19 03:29:38;;;;;;;3.47;2.40;;;3.90;99.90;;;;;;4979713;28;20279;-69
2023/04/19 03:32:04;;;;;;;4.60;2.73;;;3.80;99.90;;;;;;4979719;28;20556;-69
2023/04/19 03:34:29;;;;;;;6.33;2.93;;;3.80;99.90;;;;;;4977965;28;20236;-68
2023/04/19 03:36:55;;;;;;;2.10;1.90;;;3.90;99.90;;;;;;4976730;28;20236;-69
2023/04/19 03:39:20;;;;;;;3.17;2.90;;;3.80;99.90;;;;;;4967219;28;20219;-70
2023/04/19 03:41:46;;;;;;;1.97;1.70;;;3.90;99.90;;;;;;4969920;28;20200;-69
2023/04/19 03:44:11;;;;;;;5.60;2.50;;;3.90;99.90;;;;;;4970064;28;20281;-71
2023/04/19 03:46:37;;;;;;;3.80;2.57;;;3.90;99.90;;;;;;4963269;28;20244;-70
2023/04/19 03:49:02;;;;;;;2.97;2.10;;;3.90;99.90;;;;;;4969297;28;20908;-70
2023/04/19 03:51:27;;;;;;;2.97;1.93;;;3.90;99.90;;;;;;4972290;28;20205;-70
2023/04/19 03:53:53;;;;;;;9.53;2.67;;;3.80;99.90;;;;;;4974416;28;20205;-70
2023/04/19 03:56:19;;;;;;;4.23;2.67;;;3.70;99.90;;;;;;4968836;28;20205;-70
2023/04/19 03:58:45;;;;;;;6.73;3.23;;;3.70;99.90;;;;;;4968805;28;20363;-70
2023/04/19 04:01:18;;;;;;;4.43;3.20;;;3.80;99.90;;;;;;4965185;28;20281;-71
2023/04/19 04:03:44;;;;;;;4.43;2.53;;;3.70;99.90;;;;;;4970264;28;20609;-70
2023/04/19 04:06:09;;;;;;;3.10;2.40;;;3.70;99.90;;;;;;4969886;28;20204;-70
2023/04/19 04:08:35;;;;;;;4.50;2.53;;;3.60;99.90;;;;;;4969526;28;20223;-70
2023/04/19 04:11:00;;;;;;;3.00;2.47;;;3.50;99.90;;;;;;4967630;28;20222;-69
2023/04/19 04:13:26;;;;;;;3.53;3.23;;;3.60;99.90;;;;;;4969255;28;20244;-70
2023/04/19 04:15:51;;;;;;;3.17;2.27;;;3.70;99.90;;;;;;4976520;28;20231;-70
2023/04/19 04:18:16;;;;;;;4.23;2.20;;;3.70;99.90;;;;;;4977979;28;20943;-70
2023/04/19 04:20:43;;;;;;;4.07;2.43;;;3.70;99.90;;;;;;4978222;28;20549;-71
2023/04/19 04:23:09;;;;;;;7.13;2.53;;;3.80;99.90;;;;;;4976982;28;20262;-69
2023/04/19 04:25:36;;;;;;;3.77;2.90;;;3.80;99.90;;;;;;4978499;28;20918;-69
2023/04/19 04:28:02;;;;;;;3.47;3.07;;;3.70;99.90;;;;;;4978711;28;20209;-70
2023/04/19 04:30:29;;;;;;;3.73;2.57;;;3.70;99.90;;;;;;4978261;28;20767;-70
2023/04/19 04:32:56;;;;;;;5.73;3.17;;;3.60;99.90;;;;;;4976074;28;20232;-70
2023/04/19 04:35:22;;;;;;;8.03;3.47;;;3.70;99.90;;;;;;4975811;28;20551;-68
2023/04/19 04:37:47;;;;;;;5.77;2.83;;;3.80;99.90;;;;;;4978135;28;20733;-69
2023/04/19 04:40:14;;;;;;;3.23;2.63;;;3.80;99.90;;;;;;4978377;28;20212;-70
2023/04/19 04:42:40;;;;;;;2.50;2.30;;;3.90;99.90;;;;;;4970176;28;20206;-76
2023/04/19 04:45:06;;;;;;;4.80;3.03;;;3.90;99.90;;;;;;4968395;28;20252;-70
2023/04/19 04:47:32;;;;;;;2.63;2.43;;;3.90;99.90;;;;;;4970046;28;20213;-70
2023/04/19 04:49:59;;;;;;;5.07;2.70;;;3.90;99.90;;;;;;4964816;28;20676;-70
2023/04/19 04:52:25;;;;;;;3.87;2.70;;;3.90;99.90;;;;;;4968133;28;21029;-69
2023/04/19 04:54:50;;;;;;;2.63;2.20;;;3.90;99.90;;;;;;4968681;28;20212;-70
2023/04/19 04:57:16;;;;;;;3.10;2.20;;;4.00;99.90;;;;;;4966161;28;20201;-70
2023/04/19 04:59:41;;;;;;;3.33;3.03;;;4.10;99.90;;;;;;4969831;28;20247;-70
2023/04/19 05:02:06;;;;;;;3.63;2.63;;;4.10;99.90;;;;;;4970116;28;20217;-71
2023/04/19 05:04:32;;;;;;;5.10;2.43;;;4.20;99.90;;;;;;4967468;28;20692;-71
2023/04/19 05:06:57;;;;;;;2.77;2.30;;;4.20;99.90;;;;;;4967414;28;20244;-71
2023/04/19 05:09:23;;;;;;;5.60;2.77;;;4.20;99.90;;;;;;4964874;28;20223;-70
2023/04/19 05:11:49;;;;;;;5.57;2.97;;;4.30;99.90;;;;;;4967530;28;20201;-71
2023/04/19 05:14:14;;;;;;;2.90;2.57;;;4.30;99.90;;;;;;4970834;28;20331;-71
2023/04/19 05:16:40;;;;;;;5.90;2.90;;;4.30;99.90;;;;;;4964964;28;20288;-71
2023/04/19 05:19:05;;;;;;;6.07;2.90;;;4.40;99.90;;;;;;4968364;28;20887;-71
2023/04/19 05:21:33;;;;;;;5.23;2.87;;;4.40;99.90;;;;;;4967955;28;20208;-71
2023/04/19 05:23:58;;;;;;;4.90;2.43;;;4.50;99.90;;;;;;4969075;28;20209;-71
2023/04/19 05:26:24;;;;;;;4.57;2.40;;;4.60;99.90;;;;;;4967119;28;20209;-70
2023/04/19 05:28:49;;;;;;;6.20;2.17;;;4.60;99.90;;;;;;4966885;28;20212;-70
2023/04/19 05:31:15;;;;;;;6.03;2.77;;;4.60;99.90;;;;;;4967657;28;20197;-71
2023/04/19 05:33:40;;;;;;;3.53;2.57;;;4.70;99.90;;;;;;4967477;28;20236;-71
2023/04/19 05:36:06;;;;;;;4.20;2.53;;;4.70;99.90;;;;;;4967148;28;20213;-73
2023/04/19 05:38:32;;;;;;;3.17;2.87;;;4.90;99.90;;;;;;4967206;28;20193;-70
2023/04/19 05:40:58;;;;;;;3.53;2.17;;;4.90;99.90;;;;;;4965440;28;20204;-71
2023/04/19 05:43:23;;;;;;;6.63;2.47;;;5.00;99.90;;;;;;4968328;28;20202;-70
2023/04/19 05:45:49;;;;;;;5.30;2.53;;;4.90;99.90;;;;;;4968103;28;20209;-71
2023/04/19 05:48:14;;;;;;;3.23;2.27;;;5.00;99.90;;;;;;4968109;28;20299;-72
2023/04/19 05:50:40;;;;;;;1.93;1.83;;;5.00;99.90;;;;;;4969412;28;20200;-71
2023/04/19 05:53:05;;;;;;;12.93;2.77;;;5.10;99.90;;;;;;4967318;28;20216;-71
2023/04/19 05:55:31;;;;;;;3.73;2.30;;;5.20;99.90;;;;;;4967393;28;20319;-71
2023/04/19 05:57:57;;;;;;;2.60;1.90;;;5.30;99.90;;;;;;4966314;28;20757;-72
2023/04/19 06:00:23;;;;;;;5.00;2.27;;;5.40;99.90;;;;;;4965860;28;20221;-72
2023/04/19 06:02:48;;;;;;;3.67;2.23;;;5.40;99.90;;;;;;4966944;28;20251;-72
2023/04/19 06:05:14;;;;;;;7.57;2.53;;;5.50;99.90;;;;;;4966679;28;20209;-72
2023/04/19 06:07:40;;;;;;;3.27;2.23;;;5.60;99.90;;;;;;4971831;28;20205;-71
2023/04/19 06:10:06;;;;;;;6.60;2.20;;;5.60;99.90;;;;;;4949061;28;20723;-72
2023/04/19 06:12:31;;;;;;;4.77;2.13;;;5.70;99.90;;;;;;4969080;28;20357;-70
2023/04/19 06:14:57;;;;;;;6.00;2.70;;;5.80;99.90;;;;;;4976612;28;20291;-69
2023/04/19 06:17:24;;;;;;;3.50;1.63;;;5.90;99.90;;;;;;4977108;28;20560;-69
2023/04/19 06:19:53;;;;;;;4.03;2.00;;;6.00;99.90;;;;;;4976805;28;20270;-70
2023/04/19 06:22:19;;;;;;;1.80;1.70;;;6.00;99.90;;;;;;4976650;28;20675;-71
2023/04/19 06:24:45;;;;;;;5.23;2.60;;;6.10;99.90;;;;;;4976917;28;20207;-70
2023/04/19 06:27:11;;;;;;;5.73;1.97;;;6.20;99.90;;;;;;4977040;28;20710;-71
2023/04/19 06:29:37;;;;;;;6.67;1.70;;;6.30;99.90;;;;;;4980718;28;20250;-71
2023/04/19 06:32:02;;;;;;;2.97;1.63;;;6.40;99.90;;;;;;4970604;28;20223;-71
2023/04/19 06:34:28;;;;;;;7.00;2.40;;;6.40;99.90;;;;;;4976523;28;20229;-71
2023/04/19 06:36:53;;;;;;;6.97;2.00;;;6.50;99.90;;;;;;4975369;28;20731;-71
2023/04/19 06:39:19;;;;;;;5.77;2.10;;;6.70;99.90;;;;;;4976560;28;20200;-72
2023/04/19 06:41:44;;;;;;;4.60;1.83;;;6.80;99.90;;;;;;4976496;28;20278;-71
2023/04/19 06:44:12;;;;;;;5.87;1.63;;;6.80;99.90;;;;;;4975482;28;20200;-72
2023/04/19 06:46:37;;;;;;;3.67;3.37;;;6.80;99.90;;;;;;4968129;28;20213;-71
2023/04/19 06:49:04;;;;;;;4.20;2.20;;;6.90;99.90;;;;;;4976800;28;20217;-70
2023/04/19 06:51:29;;;;;;;5.17;1.90;;;7.00;99.90;;;;;;4972095;28;20568;-75
2023/04/19 06:53:55;;;;;;;3.67;1.57;;;7.00;99.90;;;;;;4963846;28;20289;-72
2023/04/19 06:56:46;;;;;;;1.80;1.70;;;7.10;99.90;;;;;;4973603;28;20235;-72
2023/04/19 06:59:18;;;;;;;3.17;2.00;;;7.20;99.90;;;;;;4966687;28;20209;-70
2023/04/19 07:01:44;;;;;;;4.03;1.90;;;7.30;99.90;;;;;;4966142;28;20616;-71
2023/04/19 07:04:10;;;;;;;3.10;1.90;;;7.50;99.90;;;;;;4966200;28;20208;-72
2023/04/19 07:06:36;;;;;;;3.47;1.73;;;7.60;99.90;;;;;;4949692;28;20289;-71
2023/04/19 07:09:03;;;;;;;3.60;1.60;;;7.70;99.90;;;;;;4967101;28;20194;-71
2023/04/19 07:11:29;;;;;;;6.63;2.17;;;7.70;99.90;;;;;;4965808;28;20253;-71
2023/04/19 07:13:55;;;;;;;3.77;2.30;;;7.80;99.90;;;;;;4970745;28;20675;-70
2023/04/19 07:16:21;;;;;;;2.23;1.97;;;8.00;99.90;;;;;;4972971;28;20236;-71
2023/04/19 07:18:47;;;;;;;1.80;1.70;;;8.10;99.90;;;;;;4969272;28;20199;-71
2023/04/19 07:21:13;;;;;;;3.27;2.07;;;8.20;99.90;;;;;;4971382;28;20221;-71
2023/04/19 07:23:39;;;;;;;1.50;1.40;;;8.30;99.90;;;;;;4970010;28;20616;-71
2023/04/19 07:26:06;;;;;;;2.20;2.00;;;8.50;99.90;;;;;;4969929;28;20248;-70
2023/04/19 07:28:31;;;;;;;2.30;1.63;;;8.60;99.90;;;;;;4970360;28;20224;-71
2023/04/19 07:30:57;;;;;;;4.70;1.90;;;8.60;99.90;;;;;;4969859;28;20202;-69
2023/04/19 07:33:26;;;;;;;3.00;1.40;;;8.70;99.90;;;;;;4976549;28;20233;-68
2023/04/19 07:35:52;;;;;;;4.50;2.40;;;8.80;99.90;;;;;;4979333;28;20683;-69
2023/04/19 07:38:18;;;;;;;4.70;1.80;;;8.80;99.90;;;;;;4979426;28;20197;-69
2023/04/19 07:40:44;;;;;;;6.97;1.50;;;8.80;99.90;;;;;;4979503;28;20225;-69
2023/04/19 07:43:09;;;;;;;2.83;1.53;;;8.90;99.90;;;;;;4959820;28;20315;-68
2023/04/19 07:45:35;;;;;;;4.00;1.70;;;8.90;99.40;;;;;;4979687;28;20212;-69
2023/04/19 07:48:01;;;;;;;3.00;1.80;;;9.00;98.60;;;;;;4979076;28;20614;-70
2023/04/19 07:50:26;;;;;;;4.50;1.50;;;9.10;98.90;;;;;;4979579;28;20209;-70
2023/04/19 07:52:52;;;;;;;2.23;1.67;;;9.20;98.20;;;;;;4979291;28;20324;-69
2023/04/19 07:55:18;;;;;;;4.40;2.50;;;9.20;98.00;;;;;;4977365;28;20267;-70
2023/04/19 07:57:49;;;;;;;2.33;1.57;;;9.30;98.70;;;;;;4979370;28;20209;-70
2023/04/19 08:00:16;;;;;;;3.47;2.03;;;9.40;97.40;;;;;;4979389;28;20189;-73
2023/04/19 08:02:44;;;;;;;3.83;1.40;;;9.40;97.30;;;;;;4978670;28;20209;-69
2023/04/19 08:05:09;;;;;;;3.60;1.80;;;9.40;97.10;;;;;;4975044;28;20237;-69
2023/04/19 08:07:35;;;;;;;2.60;1.87;;;9.50;97.60;;;;;;4976341;28;20677;-69
2023/04/19 08:10:01;;;;;;;2.60;1.77;;;9.80;98.50;;;;;;4978753;28;20231;-69
2023/04/19 08:12:26;;;;;;;3.60;2.43;;;9.90;95.90;;;;;;4961010;28;20743;-69
2023/04/19 08:14:51;;;;;;;3.77;2.20;;;9.90;96.60;;;;;;4978532;28;20540;-70
2023/04/19 08:17:20;;;;;;;3.07;2.20;;;10.00;95.40;;;;;;4979017;28;20221;-70
2023/04/19 08:19:48;;;;;;;3.90;1.67;;;10.00;94.70;;;;;;4977251;28;20661;-70
2023/04/19 08:22:14;;;;;;;2.90;1.60;;;10.10;95.20;;;;;;4978924;28;20635;-69
2023/04/19 08:24:40;;;;;;;3.60;1.93;;;10.20;95.20;;;;;;4978086;28;20209;-71
2023/04/19 08:27:05;;;;;;;2.97;1.67;;;10.20;93.80;;;;;;4961287;28;20209;-71
2023/04/19 08:29:32;;;;;;;3.30;2.07;;;10.30;93.70;;;;;;4978794;28;20267;-71
2023/04/19 08:31:57;;;;;;;2.13;1.93;;;10.30;93.50;;;;;;4978930;28;20324;-71
2023/04/19 08:34:23;;;;;;;4.13;2.20;;;10.30;93.70;;;;;;4976673;28;20248;-70
2023/04/19 08:36:49;;;;;;;3.43;2.40;;;10.40;93.20;;;;;;4978597;28;20206;-70
2023/04/19 08:39:15;;;;;;;2.43;1.60;;;10.50;93.90;;;;;;4980979;28;20803;-71
2023/04/19 08:41:40;;;;;;;4.90;2.37;;;10.70;93.30;;;;;;4976031;28;20214;-70
2023/04/19 08:44:06;;;;;;;5.33;2.03;;;10.70;91.30;;;;;;4974301;28;20255;-71
2023/04/19 08:46:31;;;;;;;5.63;2.27;;;10.70;91.50;;;;;;4976926;28;20210;-69
2023/04/19 08:48:59;;;;;;;3.93;2.77;;;10.70;92.30;;;;;;4981086;28;20747;-69
2023/04/19 08:51:26;;;;;;;3.67;2.43;;;10.70;91.30;;;;;;4974352;28;20755;-70
2023/04/19 08:53:55;;;;;;;4.00;3.07;;;10.70;91.10;;;;;;4967784;28;20213;-70
2023/04/19 08:56:21;;;;;;;2.50;2.30;;;10.60;91.00;;;;;;4970497;28;20228;-70
2023/04/19 08:58:47;;;;;;;1.93;1.83;;;10.80;91.40;;;;;;4965502;28;20269;-69
2023/04/19 09:01:12;;;;;;;4.47;2.30;;;10.90;90.80;;;;;;4966785;28;20206;-70
2023/04/19 09:03:45;;;;;;;3.80;2.30;;;11.00;91.20;;;;;;4967205;28;20198;-79
2023/04/19 09:06:11;;;;;;;3.20;2.00;;;11.20;90.40;;;;;;4966977;28;20192;-80
2023/04/19 09:08:38;;;;;;;6.27;3.63;;;11.30;90.10;;;;;;4969861;28;20274;-78
2023/04/19 09:11:03;;;;;;;3.93;2.53;;;11.30;90.00;;;;;;4966909;28;20206;-81
2023/04/19 09:13:30;;;;;;;4.37;2.57;;;11.20;88.90;;;;;;4970965;28;20845;-79
2023/04/19 09:15:56;;;;;;;6.87;2.30;;;11.20;87.90;;;;;;4968793;28;20692;-70
2023/04/19 09:18:23;;;;;;;3.40;1.87;;;11.40;88.60;;;;;;4967717;28;20687;-70
2023/04/19 09:20:55;;;;;;;3.37;2.10;;;11.40;88.00;;;;;;4965852;28;20987;-70
2023/04/19 09:23:24;;;;;;;4.50;1.80;;;11.60;87.50;;;;;;4966208;28;20638;-70
2023/04/19 09:25:59;;;;;;;2.43;2.00;;;11.70;86.40;;;;;;4972365;28;20313;-81
2023/04/19 09:28:26;;;;;;;5.10;2.40;;;11.90;87.10;;;;;;4966261;28;20689;-75
2023/04/19 09:30:51;;;;;;;4.33;2.20;;;12.00;86.90;;;;;;4965947;28;20605;-77
2023/04/19 09:33:32;;;;;;;5.00;2.37;;;12.10;84.30;;;;;;4966210;28;20234;-74
2023/04/19 09:35:58;;;;;;;4.03;1.97;;;12.20;80.40;;;;;;4967586;28;20250;-76
2023/04/19 09:38:24;;;;;;;4.90;2.20;;;11.80;80.00;;;;;;4969994;28;20774;-75
2023/04/19 09:40:49;;;;;;;5.20;2.70;;;11.70;80.00;;;;;;4975959;28;20470;-75
2023/04/19 09:43:26;;;;;;;2.83;2.50;;;11.70;81.00;;;;;;4968671;28;20206;-84
2023/04/19 09:45:52;;;;;;;5.07;2.73;;;12.00;80.10;;;;;;4978937;28;20212;-80
2023/04/19 09:48:17;;;;;;;5.93;2.43;;;12.20;81.70;;;;;;4974637;28;20580;-67
2023/04/19 09:50:57;;;;;;;3.47;2.40;;;12.40;83.00;;;;;;4965044;28;20609;-65
2023/04/19 09:53:24;;;;;;;5.90;2.50;;;12.60;79.30;;;;;;4964482;28;20217;-66
2023/04/19 09:55:50;;;;;;;4.30;2.20;;;12.60;79.70;;;;;;4967518;28;20223;-66
2023/04/19 09:58:18;;;;;;;6.37;2.53;;;12.80;79.70;;;;;;4969778;28;20593;-66
2023/04/19 10:00:46;;;;;;;3.80;2.43;;;12.80;79.10;;;;;;4965890;28;20576;-67
2023/04/19 10:03:15;;;;;;;5.13;2.70;;;12.90;78.10;;;;;;4967740;28;20195;-67
2023/04/19 10:05:42;;;;;;;3.30;2.03;;;12.90;75.40;;;;;;4967444;28;20211;-66
2023/04/19 10:08:10;;;;;;;4.07;2.43;;;12.90;76.80;;;;;;4967377;28;20217;-65
2023/04/19 10:10:36;;;;;;;5.40;2.97;;;12.90;77.90;;;;;;4966646;28;20292;-66
2023/04/19 10:13:03;;;;;;;4.80;2.63;;;13.00;76.10;;;;;;4967474;28;20208;-65
2023/04/19 10:15:31;;;;;;;3.23;2.40;;;13.00;75.60;;;;;;4967532;28;20696;-66
2023/04/19 10:17:57;;;;;;;4.03;2.93;;;13.10;77.50;;;;;;4950234;28;20254;-66
2023/04/19 10:20:28;;;;;;;4.07;2.23;;;13.30;74.50;;;;;;4965323;28;20203;-67
2023/04/19 10:22:55;;;;;;;3.80;2.50;;;13.30;77.80;;;;;;4965336;28;20207;-67
2023/04/19 10:25:28;;;;;;;6.20;2.77;;;13.20;74.20;;;;;;4965123;28;20210;-65
2023/04/19 10:27:54;;;;;;;10.13;2.87;;;12.80;72.90;;;;;;4967207;28;20209;-66
2023/04/19 10:30:21;;;;;;;3.83;2.60;;;12.60;73.80;;;;;;4967354;28;20670;-67
2023/04/19 10:32:58;;;;;;;4.07;2.50;;;12.60;75.70;;;;;;4965087;28;20641;-64
2023/04/19 10:35:31;;;;;;;4.83;2.40;;;12.60;73.40;;;;;;4968966;28;20208;-65
2023/04/19 10:38:15;;;;;;;5.27;2.40;;;12.50;75.30;;;;;;4964042;28;20214;-65
2023/04/19 10:41:00;;;;;;;7.57;2.57;;;12.90;75.80;;;;;;4971001;28;20684;-80
2023/04/19 10:43:30;;;;;;;2.70;2.50;;;13.40;75.30;;;;;;4975060;28;20193;-79
2023/04/19 10:46:05;;;;;;;4.50;2.83;;;13.70;74.90;;;;;;4975933;28;20207;-67
2023/04/19 10:48:36;;;;;;;5.83;2.90;;;13.90;74.70;;;;;;4970481;28;20255;-67
2023/04/19 10:51:02;;;;;;;5.27;2.47;;;13.90;73.40;;;;;;4969451;28;20211;-66
2023/04/19 10:53:57;;;;;;;3.53;2.47;;;14.10;73.80;;;;;;4969949;28;20206;-68
2023/04/19 10:56:32;;;;;;;6.17;2.67;;;14.30;73.70;;;;;;4969380;28;20259;-84
2023/04/19 10:59:06;;;;;;;4.27;2.00;;;14.30;72.00;;;;;;4971899;28;20198;-79
2023/04/19 11:01:35;;;;;;;7.23;2.43;;;14.40;69.50;;;;;;4967762;28;20201;-67
2023/04/19 11:04:01;;;;;;;6.50;2.80;;;14.20;72.00;;;;;;4966215;28;20224;-68
2023/04/19 11:06:27;;;;;;;6.07;2.30;;;14.20;68.60;;;;;;4984716;28;20744;-66
2023/04/19 11:08:53;;;;;;;4.93;2.23;;;14.00;71.70;;;;;;4979845;28;20210;-67
2023/04/19 11:11:22;;;;;;;4.57;2.43;;;14.00;71.00;;;;;;4980070;28;20290;-66
2023/04/19 11:13:48;;;;;;;2.67;2.47;;;14.30;70.30;;;;;;4977939;28;20238;-66
2023/04/19 11:16:13;;;;;;;5.73;2.37;;;13.90;68.50;;;;;;4971210;28;20311;-66
2023/04/19 11:18:39;;;;;;;3.80;2.50;;;13.60;70.80;;;;;;4980198;28;20283;-68
2023/04/19 11:21:04;;;;;;;3.53;2.67;;;13.30;71.90;;;;;;4975478;28;20436;-66
2023/04/19 11:23:30;;;;;;;3.43;2.33;;;13.20;71.90;;;;;;4979140;28;20234;-66
2023/04/19 11:25:56;;;;;;;3.63;2.80;;;13.30;72.30;;;;;;4977868;28;20208;-66
2023/04/19 11:28:21;;;;;;;4.90;2.30;;;13.30;72.20;;;;;;4957171;28;20208;-65
2023/04/19 11:30:48;;;;;;;3.13;2.10;;;13.40;71.10;;;;;;4979107;28;20206;-64
2023/04/19 11:33:13;;;;;;;4.30;3.00;;;13.40;71.30;;;;;;4979105;28;20789;-66
2023/04/19 11:35:40;;;;;;;3.27;2.13;;;13.30;70.30;;;;;;4978902;28;20243;-65
2023/04/19 11:38:05;;;;;;;5.07;2.40;;;13.30;70.80;;;;;;4978434;28;20199;-66
2023/04/19 11:40:31;;;;;;;7.20;2.67;;;13.30;71.10;;;;;;4972907;28;20599;-79
2023/04/19 11:42:59;;;;;;;7.77;3.30;;;13.60;72.40;;;;;;4979308;28;20477;-74
2023/04/19 11:45:29;;;;;;;6.30;2.57;;;13.60;70.70;;;;;;4978640;28;20199;-74
2023/04/19 11:47:56;;;;;;;3.43;2.70;;;13.30;69.60;;;;;;4979272;28;20210;-74
2023/04/19 11:50:39;;;;;;;4.60;3.07;;;13.30;69.80;;;;;;4976587;28;20245;-75
2023/04/19 11:53:19;;;;;;;5.07;2.70;;;13.50;70.60;;;;;;4961837;28;20575;-75
2023/04/19 11:55:49;;;;;;;4.03;2.80;;;13.50;71.40;;;;;;4979690;28;20220;-75
2023/04/19 11:58:34;;;;;;;3.63;3.10;;;13.50;70.50;;;;;;4963579;28;20931;-74
2023/04/19 12:01:10;;;;;;;5.60;2.63;;;13.30;67.90;;;;;;4975576;28;20197;-75
2023/04/19 12:03:46;;;;;;;3.33;2.77;;;13.10;68.60;;;;;;4980863;28;20642;-76
2023/04/19 12:06:14;;;;;;;2.97;1.77;;;13.00;71.00;;;;;;4969378;28;20203;-75
2023/04/19 12:08:50;;;;;;;3.53;3.00;;;13.20;71.70;;;;;;4978939;28;20756;-76
2023/04/19 12:11:23;;;;;;;5.33;2.93;;;13.20;71.50;;;;;;4978248;28;20235;-75
2023/04/19 12:14:13;;;;;;;3.77;2.70;;;13.30;69.90;;;;;;4968495;28;20207;-76
2023/04/19 12:16:39;;;;;;;3.67;2.47;;;13.40;68.80;;;;;;4970105;28;20217;-75
2023/04/19 12:19:21;;;;;;;2.93;2.67;;;13.70;68.30;;;;;;4949114;28;20208;-74
2023/04/19 12:21:47;;;;;;;3.13;2.40;;;13.80;68.30;;;;;;4967011;28;20702;-75
2023/04/19 12:24:15;;;;;;;3.50;2.43;;;13.70;68.60;;;;;;4975912;28;20193;-76
2023/04/19 12:26:55;;;;;;;3.43;2.50;;;13.80;68.90;;;;;;4978494;28;20351;-75
2023/04/19 12:29:21;;;;;;;2.57;2.07;;;14.10;67.60;;;;;;4978765;28;20200;-75
2023/04/19 12:31:46;;;;;;;2.90;2.17;;;14.10;68.50;;;;;;4978356;28;20581;-74
2023/04/19 12:34:12;;;;;;;9.37;2.73;;;14.20;67.70;;;;;;4978314;28;20242;-75
2023/04/19 12:36:37;;;;;;;5.03;3.23;;;14.10;67.00;;;;;;4978380;28;20224;-75
2023/04/19 12:39:03;;;;;;;5.30;2.57;;;14.00;65.80;;;;;;4962932;28;20204;-72
2023/04/19 12:41:28;;;;;;;4.00;3.07;;;14.00;67.80;;;;;;4968603;28;20198;-73
2023/04/19 12:43:53;;;;;;;4.30;3.03;;;13.80;67.20;;;;;;4969215;28;20194;-75
2023/04/19 12:46:19;;;;;;;7.17;3.37;;;13.30;67.90;;;;;;4969542;28;20213;-74
2023/04/19 12:48:45;;;;;;;5.60;3.50;;;13.30;68.50;;;;;;4969280;28;20717;-76
2023/04/19 12:51:10;;;;;;;5.67;3.47;;;13.40;68.80;;;;;;4967628;28;20214;-74